sensor_id;sensor_type;location;lat;lon;timestamp;P1;durP1;ratioP1;P2;durP2;ratioP2
2896;SDS011;1458;49.728;9.228;2022-12-31T00:01:14;0.20;;;0.20;;
2896;SDS011;1458;49.728;9.228;2022-12-31T00:03:43;0.17;;;0.17;;
2896;SDS011;1458;49.728;9.228;2022-12-31T00:06:12;0.20;;;0.20;;
2896;SDS011;1458;49.728;9.228;2022-12-31T00:08:47;0.20;;;0.20;;
2896;SDS011;1458;49.728;9.228;2022-12-31T00:11:15;0.20;;;0.20;;
2896;SDS011;1458;49.728;9.228;2022-12-31T00:13:43;0.20;;;0.20;;
2896;SDS011;1458;49.728;9.228;2022-12-31T00:16:11;0.10;;;0.10;;
2896;SDS011;1458;49.728;9.228;2022-12-31T00:18:42;0.20;;;0.20;;
2896;SDS011;1458;49.728;9.228;2022-12-31T00:21:10;0.10;;;0.10;;
2896;SDS011;1458;49.728;9.228;2022-12-31T00:23:38;0.20;;;0.20;;
2896;SDS011;1458;49.728;9.228;2022-12-31T00:26:08;0.10;;;0.10;;
2896;SDS011;1458;49.728;9.228;2022-12-31T00:28:38;0.23;;;0.23;;
2896;SDS011;1458;49.728;9.228;2022-12-31T00:31:07;0.20;;;0.20;;
2896;SDS011;1458;49.728;9.228;2022-12-31T00:33:37;0.20;;;0.20;;
2896;SDS011;1458;49.728;9.228;2022-12-31T00:36:06;0.20;;;0.20;;
2896;SDS011;1458;49.728;9.228;2022-12-31T00:38:36;0.20;;;0.20;;
2896;SDS011;1458;49.728;9.228;2022-12-31T00:41:04;0.20;;;0.20;;
2896;SDS011;1458;49.728;9.228;2022-12-31T00:43:34;0.10;;;0.10;;
2896;SDS011;1458;49.728;9.228;2022-12-31T00:46:02;0.20;;;0.20;;
2896;SDS011;1458;49.728;9.228;2022-12-31T00:48:30;0.10;;;0.10;;
2896;SDS011;1458;49.728;9.228;2022-12-31T00:50:59;0.10;;;0.10;;
2896;SDS011;1458;49.728;9.228;2022-12-31T00:53:27;0.10;;;0.10;;
2896;SDS011;1458;49.728;9.228;2022-12-31T00:55:58;0.10;;;0.10;;
2896;SDS011;1458;49.728;9.228;2022-12-31T00:58:27;0.20;;;0.20;;
2896;SDS011;1458;49.728;9.228;2022-12-31T01:00:55;0.20;;;0.20;;
2896;SDS011;1458;49.728;9.228;2022-12-31T01:03:22;0.20;;;0.20;;
2896;SDS011;1458;49.728;9.228;2022-12-31T01:05:50;0.20;;;0.20;;
2896;SDS011;1458;49.728;9.228;2022-12-31T01:08:17;0.20;;;0.20;;
2896;SDS011;1458;49.728;9.228;2022-12-31T01:10:47;0.10;;;0.10;;
2896;SDS011;1458;49.728;9.228;2022-12-31T01:13:39;0.10;;;0.10;;
2896;SDS011;1458;49.728;9.228;2022-12-31T01:16:07;0.10;;;0.10;;
2896;SDS011;1458;49.728;9.228;2022-12-31T01:18:36;0.20;;;0.20;;
2896;SDS011;1458;49.728;9.228;2022-12-31T01:21:04;0.20;;;0.20;;
2896;SDS011;1458;49.728;9.228;2022-12-31T01:23:34;0.20;;;0.20;;
2896;SDS011;1458;49.728;9.228;2022-12-31T01:26:02;0.20;;;0.20;;
2896;SDS011;1458;49.728;9.228;2022-12-31T01:28:32;0.10;;;0.10;;
2896;SDS011;1458;49.728;9.228;2022-12-31T01:31:03;0.20;;;0.20;;
2896;SDS011;1458;49.728;9.228;2022-12-31T01:33:32;0.10;;;0.10;;
2896;SDS011;1458;49.728;9.228;2022-12-31T01:36:00;0.30;;;0.30;;
2896;SDS011;1458;49.728;9.228;2022-12-31T01:38:29;0.13;;;0.13;;
2896;SDS011;1458;49.728;9.228;2022-12-31T01:40:57;0.23;;;0.23;;
2896;SDS011;1458;49.728;9.228;2022-12-31T01:46:11;0.20;;;0.20;;
2896;SDS011;1458;49.728;9.228;2022-12-31T01:48:47;0.10;;;0.10;;
2896;SDS011;1458;49.728;9.228;2022-12-31T01:51:17;0.13;;;0.13;;
2896;SDS011;1458;49.728;9.228;2022-12-31T01:53:46;0.20;;;0.20;;
2896;SDS011;1458;49.728;9.228;2022-12-31T01:56:15;0.20;;;0.20;;
2896;SDS011;1458;49.728;9.228;2022-12-31T01:58:46;0.10;;;0.10;;
2896;SDS011;1458;49.728;9.228;2022-12-31T02:01:20;0.10;;;0.10;;
2896;SDS011;1458;49.728;9.228;2022-12-31T02:03:51;0.20;;;0.20;;
2896;SDS011;1458;49.728;9.228;2022-12-31T02:06:20;0.10;;;0.10;;
2896;SDS011;1458;49.728;9.228;2022-12-31T02:08:50;0.20;;;0.20;;
2896;SDS011;1458;49.728;9.228;2022-12-31T02:11:19;0.20;;;0.20;;
2896;SDS011;1458;49.728;9.228;2022-12-31T02:13:51;0.20;;;0.20;;
2896;SDS011;1458;49.728;9.228;2022-12-31T02:16:26;0.10;;;0.10;;
2896;SDS011;1458;49.728;9.228;2022-12-31T02:19:05;0.20;;;0.20;;
2896;SDS011;1458;49.728;9.228;2022-12-31T02:22:00;0.20;;;0.20;;
2896;SDS011;1458;49.728;9.228;2022-12-31T02:27:49;0.20;;;0.20;;
2896;SDS011;1458;49.728;9.228;2022-12-31T02:30:32;0.20;;;0.20;;
2896;SDS011;1458;49.728;9.228;2022-12-31T02:33:08;0.20;;;0.20;;
2896;SDS011;1458;49.728;9.228;2022-12-31T02:35:42;0.20;;;0.20;;
2896;SDS011;1458;49.728;9.228;2022-12-31T02:38:16;0.20;;;0.20;;
2896;SDS011;1458;49.728;9.228;2022-12-31T02:40:49;0.23;;;0.23;;
2896;SDS011;1458;49.728;9.228;2022-12-31T02:43:18;0.23;;;0.23;;
2896;SDS011;1458;49.728;9.228;2022-12-31T02:45:49;0.20;;;0.20;;
2896;SDS011;1458;49.728;9.228;2022-12-31T02:48:26;0.20;;;0.20;;
2896;SDS011;1458;49.728;9.228;2022-12-31T02:51:09;0.20;;;0.20;;
2896;SDS011;1458;49.728;9.228;2022-12-31T02:53:57;0.27;;;0.27;;
2896;SDS011;1458;49.728;9.228;2022-12-31T02:56:48;0.20;;;0.20;;
2896;SDS011;1458;49.728;9.228;2022-12-31T02:59:27;0.20;;;0.20;;
2896;SDS011;1458;49.728;9.228;2022-12-31T03:02:20;0.30;;;0.30;;
2896;SDS011;1458;49.728;9.228;2022-12-31T03:04:50;0.30;;;0.30;;
2896;SDS011;1458;49.728;9.228;2022-12-31T03:07:20;0.20;;;0.20;;
2896;SDS011;1458;49.728;9.228;2022-12-31T03:09:51;0.20;;;0.20;;
2896;SDS011;1458;49.728;9.228;2022-12-31T03:12:19;0.20;;;0.20;;
2896;SDS011;1458;49.728;9.228;2022-12-31T03:15:07;0.20;;;0.20;;
2896;SDS011;1458;49.728;9.228;2022-12-31T03:17:46;0.30;;;0.30;;
2896;SDS011;1458;49.728;9.228;2022-12-31T03:20:19;0.20;;;0.20;;
2896;SDS011;1458;49.728;9.228;2022-12-31T03:23:08;0.20;;;0.20;;
2896;SDS011;1458;49.728;9.228;2022-12-31T03:25:37;0.20;;;0.20;;
2896;SDS011;1458;49.728;9.228;2022-12-31T03:28:05;0.20;;;0.20;;
2896;SDS011;1458;49.728;9.228;2022-12-31T03:30:34;0.20;;;0.20;;
2896;SDS011;1458;49.728;9.228;2022-12-31T03:33:06;0.20;;;0.20;;
2896;SDS011;1458;49.728;9.228;2022-12-31T03:35:35;0.20;;;0.20;;
2896;SDS011;1458;49.728;9.228;2022-12-31T03:38:04;0.20;;;0.20;;
2896;SDS011;1458;49.728;9.228;2022-12-31T03:40:35;0.20;;;0.20;;
2896;SDS011;1458;49.728;9.228;2022-12-31T03:45:33;0.20;;;0.20;;
2896;SDS011;1458;49.728;9.228;2022-12-31T03:48:01;0.20;;;0.20;;
2896;SDS011;1458;49.728;9.228;2022-12-31T03:50:33;0.20;;;0.20;;
2896;SDS011;1458;49.728;9.228;2022-12-31T03:53:01;0.20;;;0.20;;
2896;SDS011;1458;49.728;9.228;2022-12-31T03:55:29;0.20;;;0.20;;
2896;SDS011;1458;49.728;9.228;2022-12-31T03:57:56;0.27;;;0.27;;
2896;SDS011;1458;49.728;9.228;2022-12-31T04:00:24;0.20;;;0.20;;
2896;SDS011;1458;49.728;9.228;2022-12-31T04:02:51;0.20;;;0.20;;
2896;SDS011;1458;49.728;9.228;2022-12-31T04:05:19;0.20;;;0.20;;
2896;SDS011;1458;49.728;9.228;2022-12-31T04:07:48;0.20;;;0.20;;
2896;SDS011;1458;49.728;9.228;2022-12-31T04:10:17;0.20;;;0.20;;
2896;SDS011;1458;49.728;9.228;2022-12-31T04:12:45;0.20;;;0.20;;
2896;SDS011;1458;49.728;9.228;2022-12-31T04:15:14;0.20;;;0.20;;
2896;SDS011;1458;49.728;9.228;2022-12-31T04:17:44;0.20;;;0.20;;
2896;SDS011;1458;49.728;9.228;2022-12-31T04:20:13;0.30;;;0.30;;
2896;SDS011;1458;49.728;9.228;2022-12-31T04:22:40;0.20;;;0.20;;
2896;SDS011;1458;49.728;9.228;2022-12-31T04:25:11;0.20;;;0.20;;
2896;SDS011;1458;49.728;9.228;2022-12-31T04:27:38;0.37;;;0.37;;
2896;SDS011;1458;49.728;9.228;2022-12-31T04:30:08;0.23;;;0.23;;
2896;SDS011;1458;49.728;9.228;2022-12-31T04:32:37;0.30;;;0.30;;
2896;SDS011;1458;49.728;9.228;2022-12-31T04:35:05;0.20;;;0.20;;
2896;SDS011;1458;49.728;9.228;2022-12-31T04:37:34;0.30;;;0.30;;
2896;SDS011;1458;49.728;9.228;2022-12-31T04:40:01;0.20;;;0.20;;
2896;SDS011;1458;49.728;9.228;2022-12-31T04:42:30;0.20;;;0.20;;
2896;SDS011;1458;49.728;9.228;2022-12-31T04:44:57;0.30;;;0.30;;
2896;SDS011;1458;49.728;9.228;2022-12-31T04:47:25;0.20;;;0.20;;
2896;SDS011;1458;49.728;9.228;2022-12-31T04:49:52;0.20;;;0.20;;
2896;SDS011;1458;49.728;9.228;2022-12-31T04:52:20;0.33;;;0.33;;
2896;SDS011;1458;49.728;9.228;2022-12-31T04:54:47;0.30;;;0.30;;
2896;SDS011;1458;49.728;9.228;2022-12-31T04:57:15;0.20;;;0.20;;
2896;SDS011;1458;49.728;9.228;2022-12-31T04:59:43;0.20;;;0.20;;
2896;SDS011;1458;49.728;9.228;2022-12-31T05:02:11;0.30;;;0.30;;
2896;SDS011;1458;49.728;9.228;2022-12-31T05:04:38;0.30;;;0.30;;
2896;SDS011;1458;49.728;9.228;2022-12-31T05:07:05;0.30;;;0.30;;
2896;SDS011;1458;49.728;9.228;2022-12-31T05:09:33;0.30;;;0.30;;
2896;SDS011;1458;49.728;9.228;2022-12-31T05:12:00;0.30;;;0.30;;
2896;SDS011;1458;49.728;9.228;2022-12-31T05:14:28;0.30;;;0.30;;
2896;SDS011;1458;49.728;9.228;2022-12-31T05:16:56;0.30;;;0.30;;
2896;SDS011;1458;49.728;9.228;2022-12-31T05:19:25;0.30;;;0.30;;
2896;SDS011;1458;49.728;9.228;2022-12-31T05:21:52;0.30;;;0.30;;
2896;SDS011;1458;49.728;9.228;2022-12-31T05:24:33;0.33;;;0.33;;
2896;SDS011;1458;49.728;9.228;2022-12-31T05:27:01;0.27;;;0.27;;
2896;SDS011;1458;49.728;9.228;2022-12-31T05:29:28;0.30;;;0.30;;
2896;SDS011;1458;49.728;9.228;2022-12-31T05:31:57;0.20;;;0.20;;
2896;SDS011;1458;49.728;9.228;2022-12-31T05:34:24;0.30;;;0.30;;
2896;SDS011;1458;49.728;9.228;2022-12-31T05:36:52;0.30;;;0.30;;
2896;SDS011;1458;49.728;9.228;2022-12-31T05:39:19;0.20;;;0.20;;
2896;SDS011;1458;49.728;9.228;2022-12-31T05:41:47;0.30;;;0.30;;
2896;SDS011;1458;49.728;9.228;2022-12-31T05:44:14;0.30;;;0.30;;
2896;SDS011;1458;49.728;9.228;2022-12-31T05:46:42;0.30;;;0.30;;
2896;SDS011;1458;49.728;9.228;2022-12-31T05:49:12;0.40;;;0.40;;
2896;SDS011;1458;49.728;9.228;2022-12-31T05:51:39;0.30;;;0.30;;
2896;SDS011;1458;49.728;9.228;2022-12-31T05:54:07;0.40;;;0.40;;
2896;SDS011;1458;49.728;9.228;2022-12-31T05:56:35;0.30;;;0.30;;
2896;SDS011;1458;49.728;9.228;2022-12-31T05:59:02;0.40;;;0.40;;
2896;SDS011;1458;49.728;9.228;2022-12-31T06:01:30;0.30;;;0.30;;
2896;SDS011;1458;49.728;9.228;2022-12-31T06:03:57;0.20;;;0.20;;
2896;SDS011;1458;49.728;9.228;2022-12-31T06:06:26;0.20;;;0.20;;
2896;SDS011;1458;49.728;9.228;2022-12-31T06:08:53;0.27;;;0.27;;
2896;SDS011;1458;49.728;9.228;2022-12-31T06:11:20;0.37;;;0.37;;
2896;SDS011;1458;49.728;9.228;2022-12-31T06:13:47;0.37;;;0.37;;
2896;SDS011;1458;49.728;9.228;2022-12-31T06:16:15;0.30;;;0.30;;
2896;SDS011;1458;49.728;9.228;2022-12-31T06:18:42;0.30;;;0.30;;
2896;SDS011;1458;49.728;9.228;2022-12-31T06:21:14;0.30;;;0.30;;
2896;SDS011;1458;49.728;9.228;2022-12-31T06:23:43;0.40;;;0.40;;
2896;SDS011;1458;49.728;9.228;2022-12-31T06:26:10;0.30;;;0.30;;
2896;SDS011;1458;49.728;9.228;2022-12-31T06:28:38;0.30;;;0.30;;
2896;SDS011;1458;49.728;9.228;2022-12-31T06:31:07;0.30;;;0.30;;
2896;SDS011;1458;49.728;9.228;2022-12-31T06:33:38;0.43;;;0.43;;
2896;SDS011;1458;49.728;9.228;2022-12-31T06:36:06;0.30;;;0.30;;
2896;SDS011;1458;49.728;9.228;2022-12-31T06:38:40;0.30;;;0.30;;
2896;SDS011;1458;49.728;9.228;2022-12-31T06:41:11;0.30;;;0.30;;
2896;SDS011;1458;49.728;9.228;2022-12-31T06:43:41;0.30;;;0.30;;
2896;SDS011;1458;49.728;9.228;2022-12-31T06:46:09;0.30;;;0.30;;
2896;SDS011;1458;49.728;9.228;2022-12-31T06:48:38;0.33;;;0.33;;
2896;SDS011;1458;49.728;9.228;2022-12-31T06:51:08;0.40;;;0.40;;
2896;SDS011;1458;49.728;9.228;2022-12-31T06:53:38;0.33;;;0.33;;
2896;SDS011;1458;49.728;9.228;2022-12-31T06:56:08;0.30;;;0.30;;
2896;SDS011;1458;49.728;9.228;2022-12-31T06:58:40;0.40;;;0.40;;
2896;SDS011;1458;49.728;9.228;2022-12-31T07:01:13;0.30;;;0.30;;
2896;SDS011;1458;49.728;9.228;2022-12-31T07:03:57;0.37;;;0.37;;
2896;SDS011;1458;49.728;9.228;2022-12-31T07:06:37;0.40;;;0.40;;
2896;SDS011;1458;49.728;9.228;2022-12-31T07:09:12;0.30;;;0.30;;
2896;SDS011;1458;49.728;9.228;2022-12-31T07:11:53;0.30;;;0.30;;
2896;SDS011;1458;49.728;9.228;2022-12-31T07:14:33;0.30;;;0.30;;
2896;SDS011;1458;49.728;9.228;2022-12-31T07:17:08;0.33;;;0.33;;
2896;SDS011;1458;49.728;9.228;2022-12-31T07:19:52;0.30;;;0.30;;
2896;SDS011;1458;49.728;9.228;2022-12-31T07:22:26;0.40;;;0.40;;
2896;SDS011;1458;49.728;9.228;2022-12-31T07:24:54;0.30;;;0.30;;
2896;SDS011;1458;49.728;9.228;2022-12-31T07:27:30;0.40;;;0.40;;
2896;SDS011;1458;49.728;9.228;2022-12-31T07:30:16;0.40;;;0.40;;
2896;SDS011;1458;49.728;9.228;2022-12-31T07:32:57;0.30;;;0.30;;
2896;SDS011;1458;49.728;9.228;2022-12-31T07:35:48;0.30;;;0.30;;
2896;SDS011;1458;49.728;9.228;2022-12-31T07:38:32;0.40;;;0.40;;
2896;SDS011;1458;49.728;9.228;2022-12-31T07:41:10;0.40;;;0.40;;
2896;SDS011;1458;49.728;9.228;2022-12-31T07:43:53;0.47;;;0.47;;
2896;SDS011;1458;49.728;9.228;2022-12-31T07:46:30;0.30;;;0.30;;
2896;SDS011;1458;49.728;9.228;2022-12-31T07:49:08;0.30;;;0.30;;
2896;SDS011;1458;49.728;9.228;2022-12-31T07:51:38;0.30;;;0.30;;
2896;SDS011;1458;49.728;9.228;2022-12-31T07:54:06;0.30;;;0.30;;
2896;SDS011;1458;49.728;9.228;2022-12-31T07:56:34;0.30;;;0.30;;
2896;SDS011;1458;49.728;9.228;2022-12-31T07:59:04;0.40;;;0.40;;
2896;SDS011;1458;49.728;9.228;2022-12-31T08:01:48;0.40;;;0.40;;
2896;SDS011;1458;49.728;9.228;2022-12-31T08:04:22;0.30;;;0.30;;
2896;SDS011;1458;49.728;9.228;2022-12-31T08:06:58;0.30;;;0.30;;
2896;SDS011;1458;49.728;9.228;2022-12-31T08:09:41;0.40;;;0.40;;
2896;SDS011;1458;49.728;9.228;2022-12-31T08:12:17;0.40;;;0.40;;
2896;SDS011;1458;49.728;9.228;2022-12-31T08:14:47;0.40;;;0.40;;
2896;SDS011;1458;49.728;9.228;2022-12-31T08:17:16;0.40;;;0.40;;
2896;SDS011;1458;49.728;9.228;2022-12-31T08:19:45;0.40;;;0.40;;
2896;SDS011;1458;49.728;9.228;2022-12-31T08:25:18;0.40;;;0.40;;
2896;SDS011;1458;49.728;9.228;2022-12-31T08:27:57;0.30;;;0.30;;
2896;SDS011;1458;49.728;9.228;2022-12-31T08:30:35;0.40;;;0.40;;
2896;SDS011;1458;49.728;9.228;2022-12-31T08:33:14;0.40;;;0.40;;
2896;SDS011;1458;49.728;9.228;2022-12-31T08:35:51;0.40;;;0.40;;
2896;SDS011;1458;49.728;9.228;2022-12-31T08:38:34;0.40;;;0.40;;
2896;SDS011;1458;49.728;9.228;2022-12-31T08:41:12;0.50;;;0.50;;
2896;SDS011;1458;49.728;9.228;2022-12-31T08:43:47;0.40;;;0.40;;
2896;SDS011;1458;49.728;9.228;2022-12-31T08:46:28;0.50;;;0.50;;
2896;SDS011;1458;49.728;9.228;2022-12-31T08:49:06;0.40;;;0.40;;
2896;SDS011;1458;49.728;9.228;2022-12-31T08:51:35;0.40;;;0.40;;
2896;SDS011;1458;49.728;9.228;2022-12-31T08:54:04;0.50;;;0.50;;
2896;SDS011;1458;49.728;9.228;2022-12-31T08:56:33;0.60;;;0.60;;
2896;SDS011;1458;49.728;9.228;2022-12-31T08:59:12;0.50;;;0.50;;
2896;SDS011;1458;49.728;9.228;2022-12-31T09:01:58;0.40;;;0.40;;
2896;SDS011;1458;49.728;9.228;2022-12-31T09:04:49;0.80;;;0.80;;
2896;SDS011;1458;49.728;9.228;2022-12-31T09:07:27;0.50;;;0.50;;
2896;SDS011;1458;49.728;9.228;2022-12-31T09:10:03;0.50;;;0.50;;
2896;SDS011;1458;49.728;9.228;2022-12-31T09:12:43;0.50;;;0.50;;
2896;SDS011;1458;49.728;9.228;2022-12-31T09:15:20;0.60;;;0.60;;
2896;SDS011;1458;49.728;9.228;2022-12-31T09:17:56;0.60;;;0.60;;
2896;SDS011;1458;49.728;9.228;2022-12-31T09:20:25;0.60;;;0.60;;
2896;SDS011;1458;49.728;9.228;2022-12-31T09:22:55;0.70;;;0.70;;
2896;SDS011;1458;49.728;9.228;2022-12-31T09:25:24;0.50;;;0.50;;
2896;SDS011;1458;49.728;9.228;2022-12-31T09:28:00;0.53;;;0.53;;
2896;SDS011;1458;49.728;9.228;2022-12-31T09:30:40;0.70;;;0.70;;
2896;SDS011;1458;49.728;9.228;2022-12-31T09:33:24;0.60;;;0.60;;
2896;SDS011;1458;49.728;9.228;2022-12-31T09:36:02;0.70;;;0.70;;
2896;SDS011;1458;49.728;9.228;2022-12-31T09:38:36;0.63;;;0.63;;
2896;SDS011;1458;49.728;9.228;2022-12-31T09:41:14;0.53;;;0.53;;
2896;SDS011;1458;49.728;9.228;2022-12-31T09:47:22;0.70;;;0.70;;
2896;SDS011;1458;49.728;9.228;2022-12-31T09:50:30;0.60;;;0.60;;
2896;SDS011;1458;49.728;9.228;2022-12-31T09:53:29;0.73;;;0.73;;
2896;SDS011;1458;49.728;9.228;2022-12-31T09:56:19;0.80;;;0.80;;
2896;SDS011;1458;49.728;9.228;2022-12-31T09:58:56;0.70;;;0.70;;
2896;SDS011;1458;49.728;9.228;2022-12-31T10:01:34;1.10;;;1.10;;
2896;SDS011;1458;49.728;9.228;2022-12-31T10:04:25;1.00;;;1.00;;
2896;SDS011;1458;49.728;9.228;2022-12-31T10:07:22;0.90;;;0.90;;
2896;SDS011;1458;49.728;9.228;2022-12-31T10:10:06;0.83;;;0.83;;
2896;SDS011;1458;49.728;9.228;2022-12-31T10:12:44;0.90;;;0.90;;
2896;SDS011;1458;49.728;9.228;2022-12-31T10:15:58;0.80;;;0.80;;
2896;SDS011;1458;49.728;9.228;2022-12-31T10:18:47;0.83;;;0.83;;
2896;SDS011;1458;49.728;9.228;2022-12-31T10:21:32;1.00;;;1.00;;
2896;SDS011;1458;49.728;9.228;2022-12-31T10:24:26;0.80;;;0.80;;
2896;SDS011;1458;49.728;9.228;2022-12-31T10:27:27;0.90;;;0.90;;
2896;SDS011;1458;49.728;9.228;2022-12-31T10:30:14;1.10;;;1.10;;
2896;SDS011;1458;49.728;9.228;2022-12-31T10:32:48;1.00;;;1.00;;
2896;SDS011;1458;49.728;9.228;2022-12-31T10:35:30;1.00;;;1.00;;
2896;SDS011;1458;49.728;9.228;2022-12-31T10:38:10;1.20;;;1.20;;
2896;SDS011;1458;49.728;9.228;2022-12-31T10:41:04;0.97;;;0.97;;
2896;SDS011;1458;49.728;9.228;2022-12-31T10:44:10;1.00;;;1.00;;
2896;SDS011;1458;49.728;9.228;2022-12-31T10:47:36;1.00;;;1.00;;
2896;SDS011;1458;49.728;9.228;2022-12-31T10:50:44;0.97;;;0.97;;
2896;SDS011;1458;49.728;9.228;2022-12-31T10:53:38;1.17;;;1.17;;
2896;SDS011;1458;49.728;9.228;2022-12-31T10:56:33;0.90;;;0.90;;
2896;SDS011;1458;49.728;9.228;2022-12-31T10:59:57;1.13;;;1.13;;
2896;SDS011;1458;49.728;9.228;2022-12-31T11:13:03;1.37;;;1.37;;
2896;SDS011;1458;49.728;9.228;2022-12-31T11:16:11;1.23;;;1.23;;
2896;SDS011;1458;49.728;9.228;2022-12-31T11:18:47;1.50;;;1.50;;
2896;SDS011;1458;49.728;9.228;2022-12-31T11:21:26;1.70;;;1.70;;
2896;SDS011;1458;49.728;9.228;2022-12-31T11:24:13;2.00;;;2.00;;
2896;SDS011;1458;49.728;9.228;2022-12-31T11:27:00;1.53;;;1.53;;
2896;SDS011;1458;49.728;9.228;2022-12-31T11:29:46;2.20;;;2.20;;
2896;SDS011;1458;49.728;9.228;2022-12-31T11:32:31;1.90;;;1.90;;
2896;SDS011;1458;49.728;9.228;2022-12-31T11:35:20;2.00;;;2.00;;
2896;SDS011;1458;49.728;9.228;2022-12-31T11:37:57;2.07;;;2.07;;
2896;SDS011;1458;49.728;9.228;2022-12-31T11:40:39;2.30;;;2.30;;
2896;SDS011;1458;49.728;9.228;2022-12-31T11:43:22;1.90;;;1.90;;
2896;SDS011;1458;49.728;9.228;2022-12-31T11:46:11;1.90;;;1.90;;
2896;SDS011;1458;49.728;9.228;2022-12-31T11:55:10;2.43;;;2.43;;
2896;SDS011;1458;49.728;9.228;2022-12-31T11:57:49;2.27;;;2.27;;
2896;SDS011;1458;49.728;9.228;2022-12-31T12:00:19;2.60;;;2.60;;
2896;SDS011;1458;49.728;9.228;2022-12-31T12:02:51;2.00;;;2.00;;
2896;SDS011;1458;49.728;9.228;2022-12-31T12:05:22;2.33;;;2.33;;
2896;SDS011;1458;49.728;9.228;2022-12-31T12:07:51;2.53;;;2.53;;
2896;SDS011;1458;49.728;9.228;2022-12-31T12:10:23;2.50;;;2.50;;
2896;SDS011;1458;49.728;9.228;2022-12-31T12:12:53;2.60;;;2.60;;
2896;SDS011;1458;49.728;9.228;2022-12-31T12:15:23;2.37;;;2.37;;
2896;SDS011;1458;49.728;9.228;2022-12-31T12:17:57;2.57;;;2.57;;
2896;SDS011;1458;49.728;9.228;2022-12-31T12:20:31;3.00;;;3.00;;
2896;SDS011;1458;49.728;9.228;2022-12-31T12:23:11;2.90;;;2.90;;
2896;SDS011;1458;49.728;9.228;2022-12-31T12:25:42;3.20;;;3.20;;
2896;SDS011;1458;49.728;9.228;2022-12-31T12:28:16;3.50;;;3.50;;
2896;SDS011;1458;49.728;9.228;2022-12-31T12:30:51;3.17;;;3.17;;
2896;SDS011;1458;49.728;9.228;2022-12-31T12:33:23;3.20;;;3.20;;
2896;SDS011;1458;49.728;9.228;2022-12-31T12:35:52;2.93;;;2.93;;
2896;SDS011;1458;49.728;9.228;2022-12-31T12:38:31;3.43;;;3.43;;
2896;SDS011;1458;49.728;9.228;2022-12-31T12:41:00;3.43;;;3.43;;
2896;SDS011;1458;49.728;9.228;2022-12-31T12:43:30;3.20;;;3.20;;
2896;SDS011;1458;49.728;9.228;2022-12-31T12:45:59;3.10;;;3.10;;
2896;SDS011;1458;49.728;9.228;2022-12-31T12:48:33;3.37;;;3.37;;
2896;SDS011;1458;49.728;9.228;2022-12-31T12:51:11;3.50;;;3.50;;
2896;SDS011;1458;49.728;9.228;2022-12-31T12:53:55;3.50;;;3.50;;
2896;SDS011;1458;49.728;9.228;2022-12-31T12:56:35;3.47;;;3.47;;
2896;SDS011;1458;49.728;9.228;2022-12-31T12:59:18;3.47;;;3.47;;
2896;SDS011;1458;49.728;9.228;2022-12-31T13:02:15;3.30;;;3.30;;
2896;SDS011;1458;49.728;9.228;2022-12-31T13:05:04;3.50;;;3.50;;
2896;SDS011;1458;49.728;9.228;2022-12-31T13:07:49;3.30;;;3.30;;
2896;SDS011;1458;49.728;9.228;2022-12-31T13:10:29;3.30;;;3.30;;
2896;SDS011;1458;49.728;9.228;2022-12-31T13:13:16;3.27;;;3.27;;
2896;SDS011;1458;49.728;9.228;2022-12-31T13:15:52;2.90;;;2.90;;
2896;SDS011;1458;49.728;9.228;2022-12-31T13:18:39;3.20;;;3.20;;
2896;SDS011;1458;49.728;9.228;2022-12-31T13:21:22;3.13;;;3.13;;
2896;SDS011;1458;49.728;9.228;2022-12-31T13:24:06;3.10;;;3.10;;
2896;SDS011;1458;49.728;9.228;2022-12-31T13:26:48;3.20;;;3.20;;
2896;SDS011;1458;49.728;9.228;2022-12-31T13:29:23;3.20;;;3.20;;
2896;SDS011;1458;49.728;9.228;2022-12-31T13:31:55;3.67;;;3.67;;
2896;SDS011;1458;49.728;9.228;2022-12-31T13:34:27;3.20;;;3.20;;
2896;SDS011;1458;49.728;9.228;2022-12-31T13:37:01;3.20;;;3.20;;
2896;SDS011;1458;49.728;9.228;2022-12-31T13:39:35;3.27;;;3.27;;
2896;SDS011;1458;49.728;9.228;2022-12-31T13:42:06;3.20;;;3.20;;
2896;SDS011;1458;49.728;9.228;2022-12-31T13:44:42;3.30;;;3.30;;
2896;SDS011;1458;49.728;9.228;2022-12-31T13:47:16;3.77;;;3.77;;
2896;SDS011;1458;49.728;9.228;2022-12-31T13:49:53;2.90;;;2.90;;
2896;SDS011;1458;49.728;9.228;2022-12-31T13:52:27;3.23;;;3.23;;
2896;SDS011;1458;49.728;9.228;2022-12-31T13:55:03;3.30;;;3.30;;
2896;SDS011;1458;49.728;9.228;2022-12-31T13:57:39;3.60;;;3.60;;
2896;SDS011;1458;49.728;9.228;2022-12-31T14:00:14;3.27;;;3.27;;
2896;SDS011;1458;49.728;9.228;2022-12-31T14:02:49;3.30;;;3.30;;
2896;SDS011;1458;49.728;9.228;2022-12-31T14:05:27;3.63;;;3.63;;
2896;SDS011;1458;49.728;9.228;2022-12-31T14:07:59;3.30;;;3.30;;
2896;SDS011;1458;49.728;9.228;2022-12-31T14:10:31;3.40;;;3.40;;
2896;SDS011;1458;49.728;9.228;2022-12-31T14:13:12;3.20;;;3.20;;
2896;SDS011;1458;49.728;9.228;2022-12-31T14:16:12;3.70;;;3.70;;
2896;SDS011;1458;49.728;9.228;2022-12-31T14:18:50;3.80;;;3.80;;
2896;SDS011;1458;49.728;9.228;2022-12-31T14:21:31;3.40;;;3.40;;
2896;SDS011;1458;49.728;9.228;2022-12-31T14:24:11;3.30;;;3.30;;
2896;SDS011;1458;49.728;9.228;2022-12-31T14:26:42;3.33;;;3.33;;
2896;SDS011;1458;49.728;9.228;2022-12-31T14:29:20;3.50;;;3.50;;
2896;SDS011;1458;49.728;9.228;2022-12-31T14:32:12;3.27;;;3.27;;
2896;SDS011;1458;49.728;9.228;2022-12-31T14:35:14;3.77;;;3.77;;
2896;SDS011;1458;49.728;9.228;2022-12-31T14:37:57;3.83;;;3.83;;
2896;SDS011;1458;49.728;9.228;2022-12-31T14:40:40;3.70;;;3.70;;
2896;SDS011;1458;49.728;9.228;2022-12-31T14:43:18;3.60;;;3.60;;
2896;SDS011;1458;49.728;9.228;2022-12-31T14:45:55;3.70;;;3.70;;
2896;SDS011;1458;49.728;9.228;2022-12-31T14:48:39;3.53;;;3.53;;
2896;SDS011;1458;49.728;9.228;2022-12-31T14:51:19;3.40;;;3.40;;
2896;SDS011;1458;49.728;9.228;2022-12-31T14:53:51;3.33;;;3.33;;
2896;SDS011;1458;49.728;9.228;2022-12-31T14:56:29;3.60;;;3.60;;
2896;SDS011;1458;49.728;9.228;2022-12-31T15:01:50;3.50;;;3.50;;
2896;SDS011;1458;49.728;9.228;2022-12-31T15:04:27;3.60;;;3.60;;
2896;SDS011;1458;49.728;9.228;2022-12-31T15:07:01;3.60;;;3.60;;
2896;SDS011;1458;49.728;9.228;2022-12-31T15:09:41;3.10;;;3.10;;
2896;SDS011;1458;49.728;9.228;2022-12-31T15:12:29;3.10;;;3.10;;
2896;SDS011;1458;49.728;9.228;2022-12-31T15:15:25;3.50;;;3.50;;
2896;SDS011;1458;49.728;9.228;2022-12-31T15:18:30;3.07;;;3.07;;
2896;SDS011;1458;49.728;9.228;2022-12-31T15:21:21;3.33;;;3.33;;
2896;SDS011;1458;49.728;9.228;2022-12-31T15:24:00;3.40;;;3.40;;
2896;SDS011;1458;49.728;9.228;2022-12-31T15:26:38;3.70;;;3.70;;
2896;SDS011;1458;49.728;9.228;2022-12-31T15:29:24;3.50;;;3.50;;
2896;SDS011;1458;49.728;9.228;2022-12-31T15:31:55;4.10;;;4.10;;
2896;SDS011;1458;49.728;9.228;2022-12-31T15:34:27;3.77;;;3.77;;
2896;SDS011;1458;49.728;9.228;2022-12-31T15:36:58;3.57;;;3.57;;
2896;SDS011;1458;49.728;9.228;2022-12-31T15:39:38;3.43;;;3.43;;
2896;SDS011;1458;49.728;9.228;2022-12-31T15:42:24;3.30;;;3.30;;
2896;SDS011;1458;49.728;9.228;2022-12-31T15:45:11;3.60;;;3.60;;
2896;SDS011;1458;49.728;9.228;2022-12-31T15:47:44;3.60;;;3.60;;
2896;SDS011;1458;49.728;9.228;2022-12-31T15:50:16;3.57;;;3.57;;
2896;SDS011;1458;49.728;9.228;2022-12-31T15:52:49;3.70;;;3.70;;
2896;SDS011;1458;49.728;9.228;2022-12-31T15:55:21;3.83;;;3.83;;
2896;SDS011;1458;49.728;9.228;2022-12-31T15:57:55;3.60;;;3.60;;
2896;SDS011;1458;49.728;9.228;2022-12-31T16:00:29;3.53;;;3.53;;
2896;SDS011;1458;49.728;9.228;2022-12-31T16:03:17;3.70;;;3.70;;
2896;SDS011;1458;49.728;9.228;2022-12-31T16:05:49;3.60;;;3.60;;
2896;SDS011;1458;49.728;9.228;2022-12-31T16:08:18;3.90;;;3.90;;
2896;SDS011;1458;49.728;9.228;2022-12-31T16:10:55;3.70;;;3.70;;
2896;SDS011;1458;49.728;9.228;2022-12-31T16:13:24;3.83;;;3.83;;
2896;SDS011;1458;49.728;9.228;2022-12-31T16:15:57;3.87;;;3.87;;
2896;SDS011;1458;49.728;9.228;2022-12-31T16:18:35;3.97;;;3.97;;
2896;SDS011;1458;49.728;9.228;2022-12-31T16:21:04;3.40;;;3.40;;
2896;SDS011;1458;49.728;9.228;2022-12-31T16:23:32;3.80;;;3.80;;
2896;SDS011;1458;49.728;9.228;2022-12-31T16:26:00;3.50;;;3.50;;
2896;SDS011;1458;49.728;9.228;2022-12-31T16:28:29;3.77;;;3.77;;
2896;SDS011;1458;49.728;9.228;2022-12-31T16:31:01;3.70;;;3.70;;
2896;SDS011;1458;49.728;9.228;2022-12-31T16:33:31;4.00;;;4.00;;
2896;SDS011;1458;49.728;9.228;2022-12-31T16:35:59;4.03;;;4.03;;
2896;SDS011;1458;49.728;9.228;2022-12-31T16:38:31;4.20;;;4.20;;
2896;SDS011;1458;49.728;9.228;2022-12-31T16:41:07;3.70;;;3.70;;